sensor_id;sensor_type;location;lat;lon;timestamp;pressure;altitude;pressure_sealevel;temperature;humidity
78488;BME280;67885;49.758;9.582;2023-06-14T00:01:11;98839.03;;;21.91;36.19
78488;BME280;67885;49.758;9.582;2023-06-14T00:03:38;98832.59;;;21.92;36.18
78488;BME280;67885;49.758;9.582;2023-06-14T00:06:05;98840.47;;;21.87;36.60
78488;BME280;67885;49.758;9.582;2023-06-14T00:08:32;98771.09;;;21.27;36.02
78488;BME280;67885;49.758;9.582;2023-06-14T00:11:00;98836.72;;;21.81;36.61
78488;BME280;67885;49.758;9.582;2023-06-14T00:13:26;98824.69;;;21.64;36.20
78488;BME280;67885;49.758;9.582;2023-06-14T00:15:53;98842.06;;;21.61;36.69
78488;BME280;67885;49.758;9.582;2023-06-14T00:18:21;98840.38;;;21.53;35.60
78488;BME280;67885;49.758;9.582;2023-06-14T00:20:49;98837.66;;;21.47;35.36
78488;BME280;67885;49.758;9.582;2023-06-14T00:23:16;98840.97;;;21.42;36.07
78488;BME280;67885;49.758;9.582;2023-06-14T00:25:43;98837.19;;;21.36;36.69
78488;BME280;67885;49.758;9.582;2023-06-14T00:28:11;98842.13;;;21.26;36.68
78488;BME280;67885;49.758;9.582;2023-06-14T00:30:38;98821.97;;;21.09;36.45
78488;BME280;67885;49.758;9.582;2023-06-14T00:33:04;98832.78;;;21.15;37.15
78488;BME280;67885;49.758;9.582;2023-06-14T00:35:31;98838.38;;;21.14;37.28
78488;BME280;67885;49.758;9.582;2023-06-14T00:37:58;98834.22;;;21.11;37.88
78488;BME280;67885;49.758;9.582;2023-06-14T00:40:24;98838.56;;;21.12;37.83
78488;BME280;67885;49.758;9.582;2023-06-14T00:42:51;98825.44;;;21.02;38.08
78488;BME280;67885;49.758;9.582;2023-06-14T00:45:19;98829.56;;;20.98;38.35
78488;BME280;67885;49.758;9.582;2023-06-14T00:47:47;98826.25;;;20.96;37.91
78488;BME280;67885;49.758;9.582;2023-06-14T00:50:20;98789.69;;;20.74;37.07
78488;BME280;67885;49.758;9.582;2023-06-14T00:52:47;98834.34;;;20.96;37.73
78488;BME280;67885;49.758;9.582;2023-06-14T00:55:14;98832.22;;;20.85;36.89
78488;BME280;67885;49.758;9.582;2023-06-14T00:57:41;98841.06;;;20.79;37.69
78488;BME280;67885;49.758;9.582;2023-06-14T01:00:08;98841.03;;;20.72;37.86
78488;BME280;67885;49.758;9.582;2023-06-14T01:02:38;98790.06;;;20.35;38.07
78488;BME280;67885;49.758;9.582;2023-06-14T01:05:06;98838.88;;;20.61;37.87
78488;BME280;67885;49.758;9.582;2023-06-14T01:07:46;98840.25;;;20.50;37.83
78488;BME280;67885;49.758;9.582;2023-06-14T01:10:29;98840.41;;;20.42;37.94
78488;BME280;67885;49.758;9.582;2023-06-14T01:13:07;98807.31;;;20.19;38.46
78488;BME280;67885;49.758;9.582;2023-06-14T01:15:37;98841.56;;;20.32;38.62
78488;BME280;67885;49.758;9.582;2023-06-14T01:18:06;98838.63;;;20.27;38.47
78488;BME280;67885;49.758;9.582;2023-06-14T01:20:34;98836.53;;;20.23;38.43
78488;BME280;67885;49.758;9.582;2023-06-14T01:23:04;98833.00;;;20.22;38.46
78488;BME280;67885;49.758;9.582;2023-06-14T01:25:31;98835.06;;;20.20;38.44
78488;BME280;67885;49.758;9.582;2023-06-14T01:28:01;98828.84;;;20.19;38.65
78488;BME280;67885;49.758;9.582;2023-06-14T01:30:30;98835.25;;;20.18;38.56
78488;BME280;67885;49.758;9.582;2023-06-14T01:32:59;98822.91;;;20.02;38.30
78488;BME280;67885;49.758;9.582;2023-06-14T01:35:26;98829.44;;;20.15;38.02
78488;BME280;67885;49.758;9.582;2023-06-14T01:37:53;98833.94;;;20.08;38.01
78488;BME280;67885;49.758;9.582;2023-06-14T01:40:23;98824.53;;;19.97;38.45
78488;BME280;67885;49.758;9.582;2023-06-14T01:42:51;98829.63;;;19.92;38.67
78488;BME280;67885;49.758;9.582;2023-06-14T01:45:20;98818.19;;;19.83;38.72
78488;BME280;67885;49.758;9.582;2023-06-14T01:47:48;98831.59;;;19.83;38.62
78488;BME280;67885;49.758;9.582;2023-06-14T01:50:15;98833.69;;;19.81;38.83
78488;BME280;67885;49.758;9.582;2023-06-14T01:52:42;98817.44;;;19.74;38.75
78488;BME280;67885;49.758;9.582;2023-06-14T01:55:09;98827.28;;;19.82;39.50
78488;BME280;67885;49.758;9.582;2023-06-14T01:57:37;98828.47;;;19.79;39.26
78488;BME280;67885;49.758;9.582;2023-06-14T02:00:05;98811.34;;;19.65;39.45
78488;BME280;67885;49.758;9.582;2023-06-14T02:02:35;98831.72;;;19.75;39.03
78488;BME280;67885;49.758;9.582;2023-06-14T02:05:03;98832.28;;;19.70;39.45
78488;BME280;67885;49.758;9.582;2023-06-14T02:07:29;98837.22;;;19.66;39.49
78488;BME280;67885;49.758;9.582;2023-06-14T02:09:56;98836.13;;;19.61;39.83
78488;BME280;67885;49.758;9.582;2023-06-14T02:12:22;98831.69;;;19.53;39.66
78488;BME280;67885;49.758;9.582;2023-06-14T02:14:51;98839.94;;;19.51;39.87
78488;BME280;67885;49.758;9.582;2023-06-14T02:17:17;98840.13;;;19.50;39.84
78488;BME280;67885;49.758;9.582;2023-06-14T02:19:44;98837.84;;;19.47;39.89
78488;BME280;67885;49.758;9.582;2023-06-14T02:22:11;98839.13;;;19.51;39.80
78488;BME280;67885;49.758;9.582;2023-06-14T02:24:40;98833.94;;;19.49;39.75
78488;BME280;67885;49.758;9.582;2023-06-14T02:27:06;98840.59;;;19.53;39.51
78488;BME280;67885;49.758;9.582;2023-06-14T02:29:35;98840.75;;;19.52;39.53
78488;BME280;67885;49.758;9.582;2023-06-14T02:32:04;98845.78;;;19.55;39.63
78488;BME280;67885;49.758;9.582;2023-06-14T02:34:32;98851.91;;;19.49;39.51
78488;BME280;67885;49.758;9.582;2023-06-14T02:36:59;98847.28;;;19.43;39.60
78488;BME280;67885;49.758;9.582;2023-06-14T02:39:25;98837.22;;;19.30;39.75
78488;BME280;67885;49.758;9.582;2023-06-14T02:41:52;98840.47;;;19.25;39.76
78488;BME280;67885;49.758;9.582;2023-06-14T02:44:19;98875.94;;;19.20;40.24
78488;BME280;67885;49.758;9.582;2023-06-14T02:46:46;98849.66;;;19.16;40.49
78488;BME280;67885;49.758;9.582;2023-06-14T02:49:14;98842.72;;;19.07;40.86
78488;BME280;67885;49.758;9.582;2023-06-14T02:51:40;98840.69;;;19.09;40.80
78488;BME280;67885;49.758;9.582;2023-06-14T02:54:07;98844.81;;;19.11;40.23
78488;BME280;67885;49.758;9.582;2023-06-14T02:56:33;98842.72;;;19.07;40.67
78488;BME280;67885;49.758;9.582;2023-06-14T02:59:01;98850.66;;;19.15;39.99
78488;BME280;67885;49.758;9.582;2023-06-14T03:01:28;98852.72;;;19.13;40.02
78488;BME280;67885;49.758;9.582;2023-06-14T03:04:00;98865.00;;;19.22;39.77
78488;BME280;67885;49.758;9.582;2023-06-14T03:06:28;98862.97;;;19.24;39.98
78488;BME280;67885;49.758;9.582;2023-06-14T03:08:56;98865.94;;;19.29;38.86
78488;BME280;67885;49.758;9.582;2023-06-14T03:11:25;98852.50;;;19.29;41.56
78488;BME280;67885;49.758;9.582;2023-06-14T03:13:52;98865.00;;;19.59;39.93
78488;BME280;67885;49.758;9.582;2023-06-14T03:16:19;98864.59;;;19.77;39.84
78488;BME280;67885;49.758;9.582;2023-06-14T03:18:47;98865.19;;;19.94;39.73
78488;BME280;67885;49.758;9.582;2023-06-14T03:21:13;98876.53;;;20.11;37.66
78488;BME280;67885;49.758;9.582;2023-06-14T03:23:42;98874.28;;;20.14;38.06
78488;BME280;67885;49.758;9.582;2023-06-14T03:26:09;98879.66;;;20.14;37.59
78488;BME280;67885;49.758;9.582;2023-06-14T03:28:38;98878.78;;;20.07;37.58
78488;BME280;67885;49.758;9.582;2023-06-14T03:31:05;98797.44;;;19.55;37.54
78488;BME280;67885;49.758;9.582;2023-06-14T03:33:31;98883.41;;;19.92;37.44
78488;BME280;67885;49.758;9.582;2023-06-14T03:35:58;98865.28;;;19.64;38.20
78488;BME280;67885;49.758;9.582;2023-06-14T03:38:24;98894.38;;;19.75;38.14
78488;BME280;67885;49.758;9.582;2023-06-14T03:40:52;98884.81;;;19.73;38.14
78488;BME280;67885;49.758;9.582;2023-06-14T03:43:19;98891.22;;;19.71;37.94
78488;BME280;67885;49.758;9.582;2023-06-14T03:45:46;98886.41;;;19.67;38.26
78488;BME280;67885;49.758;9.582;2023-06-14T03:48:13;98887.25;;;19.67;38.72
78488;BME280;67885;49.758;9.582;2023-06-14T03:50:39;98899.00;;;19.66;39.94
78488;BME280;67885;49.758;9.582;2023-06-14T03:53:08;98899.06;;;19.73;39.72
78488;BME280;67885;49.758;9.582;2023-06-14T03:55:35;98906.66;;;19.84;40.46
78488;BME280;67885;49.758;9.582;2023-06-14T03:58:04;98902.91;;;20.00;39.63
78488;BME280;67885;49.758;9.582;2023-06-14T04:00:31;98892.34;;;19.99;39.56
78488;BME280;67885;49.758;9.582;2023-06-14T04:02:58;98896.13;;;20.04;38.74
78488;BME280;67885;49.758;9.582;2023-06-14T04:05:25;98904.72;;;20.15;38.96
78488;BME280;67885;49.758;9.582;2023-06-14T04:07:52;98906.25;;;20.24;38.15
78488;BME280;67885;49.758;9.582;2023-06-14T04:10:21;98917.88;;;20.31;38.96
78488;BME280;67885;49.758;9.582;2023-06-14T04:12:48;98921.03;;;20.35;38.20
78488;BME280;67885;49.758;9.582;2023-06-14T04:15:17;98902.41;;;20.33;38.60
78488;BME280;67885;49.758;9.582;2023-06-14T04:17:44;98911.97;;;20.43;38.33
78488;BME280;67885;49.758;9.582;2023-06-14T04:20:11;98928.44;;;20.54;38.57
78488;BME280;67885;49.758;9.582;2023-06-14T04:22:37;98927.00;;;20.59;38.50
78488;BME280;67885;49.758;9.582;2023-06-14T04:25:04;98923.75;;;20.63;39.12
78488;BME280;67885;49.758;9.582;2023-06-14T04:27:32;98933.41;;;20.58;39.42
78488;BME280;67885;49.758;9.582;2023-06-14T04:30:01;98928.81;;;20.51;39.06
78488;BME280;67885;49.758;9.582;2023-06-14T04:32:30;98940.81;;;20.49;40.27
78488;BME280;67885;49.758;9.582;2023-06-14T04:34:58;98942.41;;;20.43;40.02
78488;BME280;67885;49.758;9.582;2023-06-14T04:37:27;98943.38;;;20.35;40.72
78488;BME280;67885;49.758;9.582;2023-06-14T04:39:55;98950.63;;;20.35;40.43
78488;BME280;67885;49.758;9.582;2023-06-14T04:42:23;98954.25;;;20.27;40.31
78488;BME280;67885;49.758;9.582;2023-06-14T04:44:56;98946.53;;;20.17;40.21
78488;BME280;67885;49.758;9.582;2023-06-14T04:47:24;98956.69;;;20.22;40.77
78488;BME280;67885;49.758;9.582;2023-06-14T04:49:56;98958.63;;;20.28;40.34
78488;BME280;67885;49.758;9.582;2023-06-14T04:52:23;98951.84;;;20.32;39.83
78488;BME280;67885;49.758;9.582;2023-06-14T04:54:51;98963.34;;;20.48;39.11
78488;BME280;67885;49.758;9.582;2023-06-14T04:57:19;98959.03;;;20.53;38.61
78488;BME280;67885;49.758;9.582;2023-06-14T04:59:47;98958.84;;;20.55;38.67
78488;BME280;67885;49.758;9.582;2023-06-14T05:02:21;98959.91;;;20.54;38.92
78488;BME280;67885;49.758;9.582;2023-06-14T05:04:48;98956.81;;;20.57;38.68
78488;BME280;67885;49.758;9.582;2023-06-14T05:07:16;98964.28;;;20.62;38.07
78488;BME280;67885;49.758;9.582;2023-06-14T05:09:44;98958.91;;;20.62;38.00
78488;BME280;67885;49.758;9.582;2023-06-14T05:12:11;98949.34;;;20.52;37.30
78488;BME280;67885;49.758;9.582;2023-06-14T05:14:37;98954.50;;;20.54;37.84
78488;BME280;67885;49.758;9.582;2023-06-14T05:17:05;98958.63;;;20.50;37.73
78488;BME280;67885;49.758;9.582;2023-06-14T05:19:32;98954.44;;;20.47;38.12
78488;BME280;67885;49.758;9.582;2023-06-14T05:21:58;98949.88;;;20.48;38.04
78488;BME280;67885;49.758;9.582;2023-06-14T05:24:27;98945.66;;;20.38;39.04
78488;BME280;67885;49.758;9.582;2023-06-14T05:26:54;98960.19;;;20.44;38.40
78488;BME280;67885;49.758;9.582;2023-06-14T05:29:21;98963.53;;;20.46;38.63
78488;BME280;67885;49.758;9.582;2023-06-14T05:31:48;98961.88;;;20.45;38.41
78488;BME280;67885;49.758;9.582;2023-06-14T05:34:15;98964.19;;;20.48;38.73
78488;BME280;67885;49.758;9.582;2023-06-14T05:36:41;98965.69;;;20.58;38.45
78488;BME280;67885;49.758;9.582;2023-06-14T05:39:08;98969.88;;;20.60;38.68
78488;BME280;67885;49.758;9.582;2023-06-14T05:41:37;98980.16;;;20.71;38.50
78488;BME280;67885;49.758;9.582;2023-06-14T05:44:03;98975.59;;;20.72;38.83
78488;BME280;67885;49.758;9.582;2023-06-14T05:46:30;98979.34;;;20.78;38.51
78488;BME280;67885;49.758;9.582;2023-06-14T05:48:57;98976.53;;;20.86;38.71
78488;BME280;67885;49.758;9.582;2023-06-14T05:51:23;98987.16;;;20.94;39.03
78488;BME280;67885;49.758;9.582;2023-06-14T05:53:51;98979.31;;;20.99;38.52
78488;BME280;67885;49.758;9.582;2023-06-14T05:56:19;98981.09;;;21.14;37.88
78488;BME280;67885;49.758;9.582;2023-06-14T05:58:47;98981.78;;;21.29;37.38
78488;BME280;67885;49.758;9.582;2023-06-14T06:01:14;98984.13;;;21.39;37.71
78488;BME280;67885;49.758;9.582;2023-06-14T06:03:41;98987.69;;;21.46;37.97
78488;BME280;67885;49.758;9.582;2023-06-14T06:06:11;98986.97;;;21.59;37.15
78488;BME280;67885;49.758;9.582;2023-06-14T06:08:38;98985.56;;;21.70;37.55
78488;BME280;67885;49.758;9.582;2023-06-14T06:11:04;98986.22;;;21.79;36.76
78488;BME280;67885;49.758;9.582;2023-06-14T06:13:31;98981.69;;;21.86;36.60
78488;BME280;67885;49.758;9.582;2023-06-14T06:15:59;98984.81;;;21.89;37.18
78488;BME280;67885;49.758;9.582;2023-06-14T06:18:26;98975.09;;;21.95;36.92
78488;BME280;67885;49.758;9.582;2023-06-14T06:20:52;98960.56;;;22.03;37.06
78488;BME280;67885;49.758;9.582;2023-06-14T06:23:19;98985.13;;;22.28;36.44
78488;BME280;67885;49.758;9.582;2023-06-14T06:25:45;98994.75;;;22.44;35.44
78488;BME280;67885;49.758;9.582;2023-06-14T06:28:12;98985.19;;;22.42;35.67
78488;BME280;67885;49.758;9.582;2023-06-14T06:30:38;98995.97;;;22.42;35.93
78488;BME280;67885;49.758;9.582;2023-06-14T06:33:06;98990.34;;;22.36;35.54
78488;BME280;67885;49.758;9.582;2023-06-14T06:35:33;98995.78;;;22.50;35.46
78488;BME280;67885;49.758;9.582;2023-06-14T06:38:00;99004.91;;;22.62;35.78
78488;BME280;67885;49.758;9.582;2023-06-14T06:40:27;99004.31;;;22.67;35.42
78488;BME280;67885;49.758;9.582;2023-06-14T06:42:53;99005.34;;;22.72;35.52
78488;BME280;67885;49.758;9.582;2023-06-14T06:45:20;99023.00;;;22.68;35.45
78488;BME280;67885;49.758;9.582;2023-06-14T06:47:49;99004.13;;;22.82;35.48
78488;BME280;67885;49.758;9.582;2023-06-14T06:50:19;99005.16;;;22.87;35.02
78488;BME280;67885;49.758;9.582;2023-06-14T06:52:48;99011.59;;;22.93;35.96
78488;BME280;67885;49.758;9.582;2023-06-14T06:55:15;99010.13;;;22.97;35.04
78488;BME280;67885;49.758;9.582;2023-06-14T06:57:43;99011.38;;;23.08;34.97
78488;BME280;67885;49.758;9.582;2023-06-14T07:00:10;99008.91;;;23.13;34.52
78488;BME280;67885;49.758;9.582;2023-06-14T07:02:38;99012.22;;;23.15;35.68
78488;BME280;67885;49.758;9.582;2023-06-14T07:05:05;99004.75;;;23.24;34.42
78488;BME280;67885;49.758;9.582;2023-06-14T07:07:33;99011.16;;;23.36;35.48
78488;BME280;67885;49.758;9.582;2023-06-14T07:10:00;99014.88;;;23.49;35.49
78488;BME280;67885;49.758;9.582;2023-06-14T07:12:29;99014.63;;;23.57;34.82
78488;BME280;67885;49.758;9.582;2023-06-14T07:14:57;98985.97;;;23.43;34.44
78488;BME280;67885;49.758;9.582;2023-06-14T07:17:23;98999.44;;;23.56;33.90
78488;BME280;67885;49.758;9.582;2023-06-14T07:19:50;99014.81;;;23.76;33.82
78488;BME280;67885;49.758;9.582;2023-06-14T07:22:18;99009.38;;;23.76;33.36
78488;BME280;67885;49.758;9.582;2023-06-14T07:24:47;99011.44;;;23.80;33.72
78488;BME280;67885;49.758;9.582;2023-06-14T07:27:13;99008.53;;;23.88;34.06
78488;BME280;67885;49.758;9.582;2023-06-14T07:29:40;99006.81;;;24.01;33.71
78488;BME280;67885;49.758;9.582;2023-06-14T07:32:07;99013.81;;;24.15;33.32
78488;BME280;67885;49.758;9.582;2023-06-14T07:34:33;99014.56;;;24.29;33.41
78488;BME280;67885;49.758;9.582;2023-06-14T07:37:00;99007.53;;;24.28;32.52
78488;BME280;67885;49.758;9.582;2023-06-14T07:39:27;99012.41;;;24.45;33.97
78488;BME280;67885;49.758;9.582;2023-06-14T07:41:56;99005.56;;;24.42;33.62
78488;BME280;67885;49.758;9.582;2023-06-14T07:44:22;99019.59;;;24.64;32.90
78488;BME280;67885;49.758;9.582;2023-06-14T07:46:49;99009.75;;;24.70;31.59
78488;BME280;67885;49.758;9.582;2023-06-14T07:49:15;99017.66;;;24.71;32.46
78488;BME280;67885;49.758;9.582;2023-06-14T07:51:42;99000.91;;;24.49;32.00
78488;BME280;67885;49.758;9.582;2023-06-14T07:54:09;99021.09;;;24.53;32.18
78488;BME280;67885;49.758;9.582;2023-06-14T07:56:36;99012.31;;;24.58;32.32
78488;BME280;67885;49.758;9.582;2023-06-14T07:59:04;99013.13;;;24.65;32.92
78488;BME280;67885;49.758;9.582;2023-06-14T08:01:31;99007.03;;;24.70;32.42
78488;BME280;67885;49.758;9.582;2023-06-14T08:03:58;98999.91;;;24.75;31.33
78488;BME280;67885;49.758;9.582;2023-06-14T08:06:25;99025.19;;;24.95;32.08
78488;BME280;67885;49.758;9.582;2023-06-14T08:08:51;99016.69;;;24.91;30.80
78488;BME280;67885;49.758;9.582;2023-06-14T08:11:18;99031.97;;;25.04;30.94
78488;BME280;67885;49.758;9.582;2023-06-14T08:13:45;99032.38;;;25.07;30.89
78488;BME280;67885;49.758;9.582;2023-06-14T08:16:13;99020.66;;;25.14;30.88
78488;BME280;67885;49.758;9.582;2023-06-14T08:18:39;99017.66;;;25.22;31.05
78488;BME280;67885;49.758;9.582;2023-06-14T08:21:06;99021.53;;;25.33;31.00
78488;BME280;67885;49.758;9.582;2023-06-14T08:23:33;99030.44;;;25.40;30.66
78488;BME280;67885;49.758;9.582;2023-06-14T08:26:01;99032.34;;;25.39;30.69
78488;BME280;67885;49.758;9.582;2023-06-14T08:28:29;99027.28;;;25.43;30.33
78488;BME280;67885;49.758;9.582;2023-06-14T08:30:56;99020.72;;;25.51;30.74
78488;BME280;67885;49.758;9.582;2023-06-14T08:33:24;99018.78;;;25.58;30.10
78488;BME280;67885;49.758;9.582;2023-06-14T08:35:50;99018.16;;;25.74;31.25
78488;BME280;67885;49.758;9.582;2023-06-14T08:38:17;99027.38;;;25.73;29.98
78488;BME280;67885;49.758;9.582;2023-06-14T08:40:47;99028.81;;;25.76;30.38
78488;BME280;67885;49.758;9.582;2023-06-14T08:43:16;99023.66;;;25.86;29.84
78488;BME280;67885;49.758;9.582;2023-06-14T08:45:46;99014.56;;;25.81;29.97
78488;BME280;67885;49.758;9.582;2023-06-14T08:48:16;99027.69;;;26.02;29.63
78488;BME280;67885;49.758;9.582;2023-06-14T08:50:48;99017.78;;;26.08;29.51
78488;BME280;67885;49.758;9.582;2023-06-14T08:53:14;99010.38;;;26.15;29.57
78488;BME280;67885;49.758;9.582;2023-06-14T08:55:45;99019.91;;;26.36;28.14
78488;BME280;67885;49.758;9.582;2023-06-14T08:58:13;99027.25;;;26.36;28.68
78488;BME280;67885;49.758;9.582;2023-06-14T09:00:40;99026.25;;;26.30;28.14
78488;BME280;67885;49.758;9.582;2023-06-14T09:03:08;99031.09;;;26.28;29.71
78488;BME280;67885;49.758;9.582;2023-06-14T09:05:38;99028.53;;;26.33;29.37
78488;BME280;67885;49.758;9.582;2023-06-14T09:08:06;99026.16;;;26.37;28.37
78488;BME280;67885;49.758;9.582;2023-06-14T09:10:33;99028.06;;;26.36;28.72
78488;BME280;67885;49.758;9.582;2023-06-14T09:13:02;99037.50;;;26.34;29.18
78488;BME280;67885;49.758;9.582;2023-06-14T09:15:30;99040.16;;;26.22;28.65
78488;BME280;67885;49.758;9.582;2023-06-14T09:17:57;99037.91;;;26.19;29.00
78488;BME280;67885;49.758;9.582;2023-06-14T09:20:24;99029.34;;;26.03;29.46
78488;BME280;67885;49.758;9.582;2023-06-14T09:22:51;99040.13;;;26.10;29.39
78488;BME280;67885;49.758;9.582;2023-06-14T09:25:21;99034.97;;;26.02;29.23
78488;BME280;67885;49.758;9.582;2023-06-14T09:27:48;99045.63;;;26.03;29.33
78488;BME280;67885;49.758;9.582;2023-06-14T09:30:15;99049.81;;;26.18;29.46
78488;BME280;67885;49.758;9.582;2023-06-14T09:32:41;99017.22;;;26.18;29.96
78488;BME280;67885;49.758;9.582;2023-06-14T09:35:09;99039.72;;;26.37;28.20
78488;BME280;67885;49.758;9.582;2023-06-14T09:37:35;99042.00;;;26.40;28.49
78488;BME280;67885;49.758;9.582;2023-06-14T09:40:04;99041.63;;;26.36;28.92
78488;BME280;67885;49.758;9.582;2023-06-14T09:42:32;99041.31;;;26.45;27.93
78488;BME280;67885;49.758;9.582;2023-06-14T09:45:03;99037.16;;;26.42;28.08
78488;BME280;67885;49.758;9.582;2023-06-14T09:47:30;99040.09;;;26.40;28.89
78488;BME280;67885;49.758;9.582;2023-06-14T09:49:56;99020.09;;;26.23;28.37
78488;BME280;67885;49.758;9.582;2023-06-14T09:52:25;99029.38;;;26.46;28.60
78488;BME280;67885;49.758;9.582;2023-06-14T09:54:54;99024.53;;;26.48;27.72
78488;BME280;67885;49.758;9.582;2023-06-14T09:57:23;99029.97;;;26.48;27.96
78488;BME280;67885;49.758;9.582;2023-06-14T09:59:57;99044.25;;;26.43;28.10
78488;BME280;67885;49.758;9.582;2023-06-14T10:02:26;99014.66;;;26.23;27.95
78488;BME280;67885;49.758;9.582;2023-06-14T10:05:03;99024.47;;;26.24;28.18
78488;BME280;67885;49.758;9.582;2023-06-14T10:07:35;99041.25;;;26.33;28.53
78488;BME280;67885;49.758;9.582;2023-06-14T10:10:06;99043.72;;;26.34;27.39
78488;BME280;67885;49.758;9.582;2023-06-14T10:12:33;99032.75;;;26.29;27.78
78488;BME280;67885;49.758;9.582;2023-06-14T10:15:02;99029.28;;;26.22;27.57
78488;BME280;67885;49.758;9.582;2023-06-14T10:17:47;99036.19;;;26.06;28.47
78488;BME280;67885;49.758;9.582;2023-06-14T10:20:24;99024.41;;;26.12;28.51
78488;BME280;67885;49.758;9.582;2023-06-14T10:23:00;99025.66;;;26.28;27.73
78488;BME280;67885;49.758;9.582;2023-06-14T10:25:30;99001.22;;;26.28;27.99
78488;BME280;67885;49.758;9.582;2023-06-14T10:28:15;99022.91;;;26.58;27.95
78488;BME280;67885;49.758;9.582;2023-06-14T10:31:06;99018.09;;;26.61;27.79
78488;BME280;67885;49.758;9.582;2023-06-14T10:33:34;99023.94;;;26.76;27.72
78488;BME280;67885;49.758;9.582;2023-06-14T10:36:08;99015.28;;;26.67;27.41
78488;BME280;67885;49.758;9.582;2023-06-14T10:38:37;99036.22;;;26.79;26.18
78488;BME280;67885;49.758;9.582;2023-06-14T10:41:04;99027.72;;;26.75;25.58
78488;BME280;67885;49.758;9.582;2023-06-14T10:43:32;99030.22;;;26.77;26.19
78488;BME280;67885;49.758;9.582;2023-06-14T10:46:17;99032.88;;;26.65;26.72
78488;BME280;67885;49.758;9.582;2023-06-14T10:48:44;98994.56;;;26.42;27.32
78488;BME280;67885;49.758;9.582;2023-06-14T10:51:20;99024.72;;;26.65;27.39
78488;BME280;67885;49.758;9.582;2023-06-14T10:53:48;98992.06;;;26.41;27.55
78488;BME280;67885;49.758;9.582;2023-06-14T10:56:27;99013.31;;;26.74;27.36
78488;BME280;67885;49.758;9.582;2023-06-14T10:58:54;99019.59;;;26.87;26.90
78488;BME280;67885;49.758;9.582;2023-06-14T11:01:36;99018.53;;;26.88;25.54
78488;BME280;67885;49.758;9.582;2023-06-14T11:04:10;99019.22;;;26.71;26.07
78488;BME280;67885;49.758;9.582;2023-06-14T11:06:47;99025.84;;;26.75;26.50
78488;BME280;67885;49.758;9.582;2023-06-14T11:09:54;99028.00;;;26.67;26.86
78488;BME280;67885;49.758;9.582;2023-06-14T11:12:28;99035.50;;;26.71;26.86
78488;BME280;67885;49.758;9.582;2023-06-14T11:14:58;99032.47;;;26.80;27.33
78488;BME280;67885;49.758;9.582;2023-06-14T11:17:26;99006.34;;;26.79;26.53
78488;BME280;67885;49.758;9.582;2023-06-14T11:20:07;99010.00;;;26.84;27.50
78488;BME280;67885;49.758;9.582;2023-06-14T11:22:39;99019.72;;;27.04;25.58
78488;BME280;67885;49.758;9.582;2023-06-14T11:25:08;99018.88;;;27.03;25.51
78488;BME280;67885;49.758;9.582;2023-06-14T11:27:35;99003.31;;;26.99;25.20
78488;BME280;67885;49.758;9.582;2023-06-14T11:30:02;99003.66;;;26.90;26.14
78488;BME280;67885;49.758;9.582;2023-06-14T11:32:32;99032.59;;;27.08;25.55
78488;BME280;67885;49.758;9.582;2023-06-14T11:34:59;99019.13;;;27.02;25.91
78488;BME280;67885;49.758;9.582;2023-06-14T11:37:27;99004.22;;;26.81;25.94
78488;BME280;67885;49.758;9.582;2023-06-14T11:39:56;99021.28;;;27.00;26.28
78488;BME280;67885;49.758;9.582;2023-06-14T11:42:22;99025.03;;;26.99;26.04
78488;BME280;67885;49.758;9.582;2023-06-14T11:44:49;99026.94;;;26.98;25.98
78488;BME280;67885;49.758;9.582;2023-06-14T11:47:16;99022.44;;;26.92;26.63
78488;BME280;67885;49.758;9.582;2023-06-14T11:49:44;99010.00;;;26.84;26.52
78488;BME280;67885;49.758;9.582;2023-06-14T11:52:12;99012.50;;;26.98;26.32
78488;BME280;67885;49.758;9.582;2023-06-14T11:54:39;99000.44;;;26.93;26.29
78488;BME280;67885;49.758;9.582;2023-06-14T11:57:06;99012.53;;;27.09;27.40
78488;BME280;67885;49.758;9.582;2023-06-14T11:59:38;99008.63;;;27.05;25.92
78488;BME280;67885;49.758;9.582;2023-06-14T12:02:05;99017.47;;;27.13;25.65
78488;BME280;67885;49.758;9.582;2023-06-14T12:04:32;99000.81;;;26.97;26.02
78488;BME280;67885;49.758;9.582;2023-06-14T12:07:10;99016.53;;;27.07;25.39
78488;BME280;67885;49.758;9.582;2023-06-14T12:09:37;99022.34;;;27.11;25.25
78488;BME280;67885;49.758;9.582;2023-06-14T12:12:05;99000.22;;;26.95;25.88
78488;BME280;67885;49.758;9.582;2023-06-14T12:14:32;99021.38;;;27.17;25.59
78488;BME280;67885;49.758;9.582;2023-06-14T12:17:04;99007.09;;;27.09;25.28
78488;BME280;67885;49.758;9.582;2023-06-14T12:19:32;98983.56;;;26.80;25.20
78488;BME280;67885;49.758;9.582;2023-06-14T12:22:00;99021.28;;;27.00;26.11
78488;BME280;67885;49.758;9.582;2023-06-14T12:24:32;99018.19;;;27.08;26.15
78488;BME280;67885;49.758;9.582;2023-06-14T12:26:58;99017.00;;;27.16;25.63
78488;BME280;67885;49.758;9.582;2023-06-14T12:29:28;99015.00;;;27.11;26.01
78488;BME280;67885;49.758;9.582;2023-06-14T12:31:55;99012.03;;;27.01;26.07
78488;BME280;67885;49.758;9.582;2023-06-14T12:34:22;99015.00;;;26.99;25.39
78488;BME280;67885;49.758;9.582;2023-06-14T12:36:49;99019.13;;;27.02;25.16
78488;BME280;67885;49.758;9.582;2023-06-14T12:39:16;99005.66;;;27.07;25.36
78488;BME280;67885;49.758;9.582;2023-06-14T12:41:44;99010.75;;;27.15;24.45
78488;BME280;67885;49.758;9.582;2023-06-14T12:44:11;98989.84;;;27.04;26.05
78488;BME280;67885;49.758;9.582;2023-06-14T12:46:39;99010.28;;;27.30;24.98
78488;BME280;67885;49.758;9.582;2023-06-14T12:49:08;99012.41;;;27.28;25.14
78488;BME280;67885;49.758;9.582;2023-06-14T12:51:35;99012.50;;;27.33;25.25
78488;BME280;67885;49.758;9.582;2023-06-14T12:54:02;99016.44;;;27.37;25.17
78488;BME280;67885;49.758;9.582;2023-06-14T12:56:28;99008.50;;;27.36;24.58
78488;BME280;67885;49.758;9.582;2023-06-14T12:58:56;99004.25;;;27.40;24.58
78488;BME280;67885;49.758;9.582;2023-06-14T13:01:23;98988.03;;;27.33;25.40
78488;BME280;67885;49.758;9.582;2023-06-14T13:03:50;99002.13;;;27.54;24.58
78488;BME280;67885;49.758;9.582;2023-06-14T13:06:20;98998.34;;;27.43;25.20